Time;durP1;ratioP1;P1;durP2;ratioP2;P2;SDS_P1;SDS_P2;PMS_P1;PMS_P2;Temp;Humidity;BMP_temperature;BMP_pressure;BME280_temperature;BME280_humidity;BME280_pressure;Samples;Min_cycle;Max_cycle;Signal;HPM_P1;HPM_P2
2022/12/11 00:01:26;;;;;;;19.90;11.13;;;3.00;99.90;;;;;;5015005;28;20262;-78
2022/12/11 00:03:52;;;;;;;23.70;11.90;;;3.00;99.90;;;;;;5015709;28;20196;-78
2022/12/11 00:06:20;;;;;;;23.23;12.90;;;2.90;99.90;;;;;;5016614;28;20176;-78
2022/12/11 00:08:46;;;;;;;24.07;13.83;;;2.90;99.90;;;;;;5015159;28;20181;-78
2022/12/11 00:11:14;;;;;;;25.57;12.13;;;2.80;99.90;;;;;;5016203;28;20201;-77
2022/12/11 00:13:39;;;;;;;25.00;13.03;;;2.80;99.90;;;;;;5014848;28;20164;-78
2022/12/11 00:16:05;;;;;;;25.63;13.67;;;2.90;99.90;;;;;;5015028;28;20566;-77
2022/12/11 00:18:31;;;;;;;25.33;12.20;;;3.00;99.90;;;;;;5015366;28;20173;-76
2022/12/11 00:21:01;;;;;;;24.53;12.67;;;3.00;99.90;;;;;;5015026;28;20414;-77
2022/12/11 00:23:27;;;;;;;24.37;12.27;;;2.80;99.90;;;;;;5015918;28;20237;-78
2022/12/11 00:25:52;;;;;;;22.67;12.10;;;2.80;99.90;;;;;;5014569;28;20208;-78
2022/12/11 00:28:18;;;;;;;20.37;12.70;;;2.90;99.90;;;;;;5014283;28;20208;-79
2022/12/11 00:30:45;;;;;;;22.83;12.63;;;2.90;99.90;;;;;;5014563;28;20211;-78
2022/12/11 00:33:12;;;;;;;24.33;12.47;;;3.10;99.90;;;;;;5015702;28;20189;-77
2022/12/11 00:35:44;;;;;;;21.90;12.77;;;3.20;99.90;;;;;;5014310;28;20599;-77
2022/12/11 00:38:20;;;;;;;26.00;13.07;;;3.20;99.90;;;;;;5014412;28;20184;-78
2022/12/11 00:40:46;;;;;;;28.47;13.63;;;3.40;99.90;;;;;;5014354;28;20646;-78
2022/12/11 00:43:12;;;;;;;23.53;12.77;;;3.30;99.90;;;;;;5014474;28;20211;-79
2022/12/11 00:45:44;;;;;;;22.70;13.00;;;3.10;99.90;;;;;;5014154;28;20168;-78
2022/12/11 00:48:12;;;;;;;29.03;15.07;;;3.20;99.90;;;;;;5014013;28;20180;-78
2022/12/11 00:50:39;;;;;;;22.87;12.50;;;3.10;99.90;;;;;;5014293;28;20157;-78
2022/12/11 00:53:05;;;;;;;24.57;13.50;;;3.00;99.90;;;;;;5014452;28;20533;-78
2022/12/11 00:55:36;;;;;;;25.60;12.27;;;3.10;99.90;;;;;;5013562;28;20600;-76
2022/12/11 00:58:02;;;;;;;23.10;12.50;;;2.90;99.90;;;;;;5013793;28;20227;-77
2022/12/11 01:00:30;;;;;;;26.47;15.43;;;2.70;99.90;;;;;;5014245;28;20634;-77
2022/12/11 01:02:55;;;;;;;24.57;13.60;;;2.70;99.90;;;;;;5014010;28;20280;-77
2022/12/11 01:05:21;;;;;;;26.87;14.50;;;2.60;99.90;;;;;;5013845;28;20242;-77
2022/12/11 01:07:46;;;;;;;25.83;12.83;;;2.80;99.90;;;;;;5013899;28;20635;-77
2022/12/11 01:10:24;;;;;;;26.63;13.77;;;2.70;99.90;;;;;;5013765;28;20169;-76
2022/12/11 01:12:56;;;;;;;23.33;11.90;;;2.90;99.90;;;;;;5013785;28;20187;-77
2022/12/11 01:15:24;;;;;;;25.27;13.97;;;2.90;99.90;;;;;;5013438;28;20544;-77
2022/12/11 01:17:50;;;;;;;28.83;14.57;;;2.60;99.90;;;;;;5015059;28;20170;-77
2022/12/11 01:20:17;;;;;;;24.07;12.40;;;2.70;99.90;;;;;;5014678;28;20650;-77
2022/12/11 01:22:43;;;;;;;21.30;11.63;;;2.80;99.90;;;;;;5014986;28;20240;-77
2022/12/11 01:25:09;;;;;;;24.30;12.73;;;3.00;99.90;;;;;;5013308;28;20169;-77
2022/12/11 01:27:35;;;;;;;22.27;11.97;;;3.00;99.90;;;;;;5012968;28;20180;-77
2022/12/11 01:30:02;;;;;;;25.33;12.60;;;2.90;99.90;;;;;;5013360;28;20176;-77
2022/12/11 01:32:28;;;;;;;26.30;12.53;;;3.10;99.90;;;;;;5013218;28;20189;-77
2022/12/11 01:34:54;;;;;;;23.77;12.63;;;3.10;99.90;;;;;;5013325;28;20653;-77
2022/12/11 01:37:20;;;;;;;25.30;12.17;;;3.00;99.90;;;;;;5014354;28;20180;-76
2022/12/11 01:39:46;;;;;;;23.17;12.13;;;2.90;99.90;;;;;;5013436;28;20180;-77
2022/12/11 01:42:18;;;;;;;22.13;12.20;;;2.90;99.90;;;;;;5014688;28;20528;-77
2022/12/11 01:44:43;;;;;;;21.57;12.00;;;3.00;99.90;;;;;;5013293;28;20168;-77
2022/12/11 01:47:11;;;;;;;25.37;12.63;;;3.20;99.90;;;;;;5012764;28;20173;-77
2022/12/11 01:49:39;;;;;;;20.17;11.37;;;3.10;99.90;;;;;;5014657;28;20244;-77
2022/12/11 01:52:18;;;;;;;22.73;12.00;;;3.10;99.90;;;;;;5013159;28;20576;-78
2022/12/11 01:54:46;;;;;;;26.03;12.83;;;3.00;99.90;;;;;;5014238;28;20244;-77
2022/12/11 01:57:14;;;;;;;24.07;13.20;;;2.90;99.90;;;;;;5012642;28;20223;-77
2022/12/11 01:59:43;;;;;;;24.93;13.23;;;2.90;99.90;;;;;;5012284;28;20184;-77
2022/12/11 02:02:17;;;;;;;25.57;12.73;;;3.00;99.90;;;;;;5013966;28;20175;-77
2022/12/11 02:04:45;;;;;;;21.77;11.63;;;3.20;99.90;;;;;;5014128;28;20618;-77
2022/12/11 02:07:11;;;;;;;25.70;13.67;;;3.20;99.90;;;;;;5012808;28;20681;-77
2022/12/11 02:09:41;;;;;;;25.63;13.37;;;3.10;99.90;;;;;;5012706;28;20165;-77
2022/12/11 02:12:26;;;;;;;23.80;13.93;;;3.10;99.90;;;;;;5012078;28;20170;-77
2022/12/11 02:15:30;;;;;;;29.47;13.20;;;3.10;99.90;;;;;;5012332;28;20219;-76
2022/12/11 02:18:05;;;;;;;24.90;14.03;;;3.20;99.90;;;;;;5012013;28;20169;-77
2022/12/11 02:20:37;;;;;;;26.37;14.03;;;3.20;99.90;;;;;;5012332;28;20634;-77
2022/12/11 02:23:12;;;;;;;27.47;12.93;;;3.40;99.90;;;;;;5013439;28;20200;-77
2022/12/11 02:26:09;;;;;;;27.23;13.83;;;3.40;99.90;;;;;;5012184;28;20187;-77
2022/12/11 02:28:38;;;;;;;25.57;14.40;;;3.40;99.90;;;;;;4992461;28;20181;-77
2022/12/11 02:31:12;;;;;;;27.43;14.63;;;3.30;99.90;;;;;;4993827;28;20162;-78
2022/12/11 02:33:43;;;;;;;27.27;13.83;;;3.30;99.90;;;;;;4993819;28;20178;-77
2022/12/11 02:36:09;;;;;;;25.27;13.03;;;3.40;99.90;;;;;;5006937;28;20208;-77
2022/12/11 02:38:39;;;;;;;29.83;14.40;;;3.50;99.90;;;;;;5012569;28;20224;-77
2022/12/11 02:41:07;;;;;;;28.80;13.73;;;3.30;99.90;;;;;;5013295;28;20193;-77
2022/12/11 02:43:35;;;;;;;28.90;13.83;;;3.30;99.90;;;;;;5011760;28;20760;-77
2022/12/11 02:46:03;;;;;;;25.43;13.80;;;3.40;99.90;;;;;;5012988;28;20185;-77
2022/12/11 02:48:31;;;;;;;28.13;14.13;;;3.50;99.90;;;;;;5011840;28;20517;-76
2022/12/11 02:50:58;;;;;;;26.53;13.13;;;3.40;99.90;;;;;;5013150;28;20188;-76
2022/12/11 02:53:27;;;;;;;23.37;12.87;;;3.30;99.90;;;;;;5011925;28;20173;-77
2022/12/11 02:56:06;;;;;;;26.97;14.63;;;3.30;99.90;;;;;;5012019;28;20185;-77
2022/12/11 02:58:33;;;;;;;28.60;15.17;;;3.40;99.90;;;;;;5012978;28;20177;-77
2022/12/11 03:00:59;;;;;;;25.27;14.13;;;3.30;99.90;;;;;;5011953;28;20165;-77
2022/12/11 03:03:28;;;;;;;27.60;15.33;;;3.30;99.90;;;;;;5011737;28;20292;-77
2022/12/11 03:05:54;;;;;;;31.50;17.03;;;3.40;99.90;;;;;;5012420;28;20174;-78
2022/12/11 03:08:23;;;;;;;27.43;13.93;;;3.40;99.90;;;;;;5012384;28;20168;-77
2022/12/11 03:10:48;;;;;;;27.23;15.27;;;3.70;99.90;;;;;;5012233;28;20165;-77
2022/12/11 03:13:19;;;;;;;25.57;14.50;;;3.60;99.90;;;;;;5012942;28;20621;-76
2022/12/11 03:16:03;;;;;;;26.80;13.50;;;3.70;99.90;;;;;;5011820;28;20184;-77
2022/12/11 03:18:53;;;;;;;27.43;14.20;;;3.10;99.90;;;;;;5012159;28;20177;-77
2022/12/11 03:21:41;;;;;;;28.23;13.90;;;2.90;99.90;;;;;;5011911;28;20234;-77
2022/12/11 03:24:30;;;;;;;28.80;14.67;;;2.90;99.90;;;;;;5011082;28;20193;-77
2022/12/11 03:27:12;;;;;;;25.17;14.33;;;2.90;99.90;;;;;;5011302;28;20631;-77
2022/12/11 03:29:43;;;;;;;29.57;14.93;;;2.90;99.90;;;;;;5011554;28;20177;-76
2022/12/11 03:32:13;;;;;;;30.00;15.13;;;3.00;99.90;;;;;;5011308;28;20243;-77
2022/12/11 03:34:44;;;;;;;29.13;15.10;;;3.10;99.90;;;;;;5011301;28;20192;-78
2022/12/11 03:37:12;;;;;;;29.77;15.30;;;2.90;99.90;;;;;;5011378;28;20176;-75
2022/12/11 03:39:43;;;;;;;36.17;15.30;;;3.00;99.90;;;;;;5011387;28;20212;-77
2022/12/11 03:42:12;;;;;;;35.17;15.63;;;3.10;99.90;;;;;;5010814;28;20166;-76
2022/12/11 03:44:40;;;;;;;38.83;20.23;;;3.30;99.90;;;;;;5012589;28;20173;-77
2022/12/11 03:47:08;;;;;;;43.90;21.50;;;3.50;99.90;;;;;;5011443;28;20327;-77
2022/12/11 03:49:39;;;;;;;34.20;16.87;;;3.70;99.90;;;;;;5012484;28;20173;-77
2022/12/11 03:52:08;;;;;;;35.37;17.87;;;3.80;99.90;;;;;;5012339;28;20169;-76
2022/12/11 03:54:34;;;;;;;37.73;18.70;;;3.90;99.90;;;;;;5011183;28;20173;-76
2022/12/11 03:57:01;;;;;;;42.07;20.20;;;3.50;99.90;;;;;;5012234;28;20176;-76
2022/12/11 03:59:27;;;;;;;31.10;16.70;;;3.50;99.90;;;;;;5012459;28;20176;-77
2022/12/11 04:01:53;;;;;;;37.63;18.10;;;3.70;99.90;;;;;;5012346;28;20158;-76
2022/12/11 04:04:19;;;;;;;36.73;19.43;;;3.60;99.90;;;;;;5011107;28;20675;-76
2022/12/11 04:06:44;;;;;;;35.00;18.10;;;3.70;99.90;;;;;;5011442;28;20200;-76
2022/12/11 04:09:10;;;;;;;33.13;18.23;;;3.60;99.90;;;;;;5012303;28;20184;-77
2022/12/11 04:11:36;;;;;;;32.67;16.70;;;3.60;99.90;;;;;;5010986;28;20185;-76
2022/12/11 04:16:50;;;;;;;37.87;18.40;;;3.60;99.90;;;;;;5013058;28;20188;-76
2022/12/11 04:24:49;;;;;;;33.13;16.97;;;3.70;99.90;;;;;;5012583;28;20212;-76
2022/12/11 04:28:01;;;;;;;34.17;16.90;;;3.80;99.90;;;;;;5012484;28;20170;-76
2022/12/11 04:30:04;;;;;;;30.47;15.07;;;3.40;99.90;;;;;;5011756;28;20185;-76
2022/12/11 04:32:30;;;;;;;37.20;19.00;;;3.10;99.90;;;;;;5014111;28;20193;-77
2022/12/11 04:34:56;;;;;;;36.80;17.70;;;3.30;99.90;;;;;;5015869;28;20224;-76
2022/12/11 04:37:21;;;;;;;39.27;17.37;;;3.20;99.90;;;;;;5014645;28;20228;-76
2022/12/11 04:39:47;;;;;;;35.73;17.00;;;3.30;99.90;;;;;;5014089;28;20180;-76
2022/12/11 04:42:12;;;;;;;34.93;17.00;;;3.30;99.90;;;;;;5014312;28;20173;-77
2022/12/11 04:44:38;;;;;;;35.77;16.47;;;3.30;99.90;;;;;;5015076;28;20184;-76
2022/12/11 04:47:04;;;;;;;34.03;17.17;;;3.40;99.90;;;;;;5014135;28;20197;-76
2022/12/11 04:49:29;;;;;;;35.40;17.50;;;3.40;99.90;;;;;;5014193;28;20188;-76
2022/12/11 04:51:55;;;;;;;37.87;18.73;;;3.40;99.90;;;;;;5013946;28;20256;-76
2022/12/11 04:54:20;;;;;;;36.23;17.03;;;3.50;99.90;;;;;;5015113;28;20177;-76
2022/12/11 04:56:46;;;;;;;32.87;16.80;;;3.50;99.90;;;;;;5014510;28;20572;-76
2022/12/11 04:59:12;;;;;;;35.00;17.00;;;3.40;99.90;;;;;;5014012;28;20173;-77
2022/12/11 05:01:37;;;;;;;29.23;15.77;;;3.40;99.90;;;;;;5014806;28;20631;-76
2022/12/11 05:04:03;;;;;;;30.43;16.00;;;3.70;99.90;;;;;;5013440;28;20319;-76
2022/12/11 05:06:30;;;;;;;30.93;16.33;;;3.60;99.90;;;;;;5014982;28;20192;-76
2022/12/11 05:08:56;;;;;;;33.83;17.07;;;3.60;99.90;;;;;;5013798;28;20249;-77
2022/12/11 05:11:24;;;;;;;32.40;16.47;;;3.80;99.90;;;;;;5014347;28;20657;-77
2022/12/11 05:13:51;;;;;;;35.70;16.67;;;3.80;99.90;;;;;;5013804;28;20181;-77
2022/12/11 05:16:16;;;;;;;34.63;17.63;;;3.50;99.90;;;;;;5013634;28;20235;-76
2022/12/11 05:18:44;;;;;;;34.10;17.27;;;3.40;99.90;;;;;;5013654;28;20185;-76
2022/12/11 05:21:12;;;;;;;32.93;15.90;;;3.30;99.90;;;;;;5013501;28;20170;-76
2022/12/11 05:23:38;;;;;;;35.77;17.40;;;3.20;99.90;;;;;;5013214;28;20662;-76
2022/12/11 05:26:07;;;;;;;34.07;16.00;;;3.30;99.90;;;;;;5013376;28;20201;-76
2022/12/11 05:28:35;;;;;;;36.17;15.93;;;3.30;99.90;;;;;;5013439;28;20534;-76
2022/12/11 05:31:12;;;;;;;32.70;16.47;;;3.30;99.90;;;;;;5013409;28;20209;-76
2022/12/11 05:33:38;;;;;;;34.10;16.43;;;3.20;99.90;;;;;;5013180;28;20199;-77
2022/12/11 05:36:05;;;;;;;34.73;15.40;;;3.40;99.90;;;;;;5013289;28;20594;-77
2022/12/11 05:38:30;;;;;;;32.43;16.83;;;3.50;99.90;;;;;;5013084;28;20208;-76
2022/12/11 05:41:04;;;;;;;31.67;16.47;;;3.40;99.90;;;;;;5012049;28;20211;-77
2022/12/11 05:43:33;;;;;;;30.77;15.73;;;3.50;99.90;;;;;;5012245;28;20594;-76
2022/12/11 05:46:08;;;;;;;30.70;15.70;;;3.30;99.90;;;;;;5014928;28;20546;-77
2022/12/11 05:48:35;;;;;;;33.10;16.90;;;3.20;99.90;;;;;;5013849;28;20176;-76
2022/12/11 05:51:02;;;;;;;34.37;16.80;;;3.10;99.90;;;;;;5012764;28;20650;-76
2022/12/11 05:53:28;;;;;;;35.90;15.93;;;3.00;99.90;;;;;;5013327;28;20184;-76
2022/12/11 05:55:59;;;;;;;34.43;16.07;;;3.20;99.90;;;;;;5014651;28;20230;-76
2022/12/11 05:58:26;;;;;;;30.57;16.33;;;3.10;99.90;;;;;;5013273;28;20182;-76
2022/12/11 06:00:52;;;;;;;38.70;18.10;;;3.00;99.90;;;;;;5012825;28;20192;-76
2022/12/11 06:03:18;;;;;;;38.80;17.77;;;3.00;99.90;;;;;;5013990;28;20657;-76
2022/12/11 06:05:45;;;;;;;32.03;16.43;;;3.00;99.90;;;;;;5012821;28;20264;-76
2022/12/11 06:08:11;;;;;;;39.30;17.73;;;3.30;99.90;;;;;;5012944;28;20180;-76
2022/12/11 06:10:37;;;;;;;33.80;17.23;;;3.20;99.90;;;;;;5012433;28;20173;-76
2022/12/11 06:13:03;;;;;;;32.60;16.40;;;3.20;99.90;;;;;;5012351;28;20184;-76
2022/12/11 06:15:29;;;;;;;34.57;16.20;;;3.20;99.90;;;;;;5012823;28;20227;-76
2022/12/11 06:17:55;;;;;;;34.93;17.53;;;3.10;99.90;;;;;;5012574;28;20173;-76
2022/12/11 06:20:20;;;;;;;34.17;17.37;;;3.00;99.90;;;;;;5012539;28;20208;-76
2022/12/11 06:22:48;;;;;;;30.10;16.13;;;2.90;99.90;;;;;;5013651;28;20224;-77
2022/12/11 06:25:13;;;;;;;32.10;16.87;;;2.80;99.90;;;;;;5013781;28;20173;-76
2022/12/11 06:27:39;;;;;;;33.63;17.27;;;2.90;99.90;;;;;;5012504;28;20176;-77
2022/12/11 06:30:05;;;;;;;32.83;16.70;;;2.90;99.90;;;;;;5013739;28;20196;-76
2022/12/11 06:32:31;;;;;;;35.17;15.57;;;2.90;99.90;;;;;;5013124;28;20189;-77
2022/12/11 06:34:57;;;;;;;27.87;16.20;;;2.90;99.90;;;;;;5012306;28;20307;-76
2022/12/11 06:37:25;;;;;;;39.80;18.33;;;3.00;99.90;;;;;;5013619;28;20177;-76
2022/12/11 06:39:50;;;;;;;32.20;16.67;;;2.80;99.90;;;;;;5012336;28;20219;-76
2022/12/11 06:42:17;;;;;;;32.67;16.40;;;2.70;99.90;;;;;;5012859;28;20311;-76
2022/12/11 06:44:44;;;;;;;29.83;15.97;;;2.60;99.90;;;;;;5012152;28;20673;-76
2022/12/11 06:47:10;;;;;;;37.50;17.93;;;2.60;99.90;;;;;;5011988;28;20223;-76
2022/12/11 06:49:37;;;;;;;34.90;16.00;;;2.50;99.90;;;;;;5013151;28;20176;-77
2022/12/11 06:52:04;;;;;;;32.67;16.90;;;2.40;99.90;;;;;;5012770;28;20177;-76
2022/12/11 06:54:30;;;;;;;34.50;16.73;;;2.50;99.90;;;;;;5011503;28;20173;-78
2022/12/11 06:56:56;;;;;;;32.73;17.03;;;2.60;99.90;;;;;;5011621;28;20276;-76
2022/12/11 06:59:21;;;;;;;34.30;17.10;;;2.60;99.90;;;;;;5012877;28;20291;-76
2022/12/11 07:01:47;;;;;;;35.63;17.77;;;2.80;99.90;;;;;;5012436;28;20269;-76
2022/12/11 07:04:12;;;;;;;33.90;17.33;;;2.80;99.90;;;;;;5012141;28;20197;-76
2022/12/11 07:06:38;;;;;;;35.73;16.60;;;2.80;99.90;;;;;;5012246;28;20168;-76
2022/12/11 07:09:05;;;;;;;35.23;17.50;;;2.80;99.90;;;;;;5012138;28;20215;-76
2022/12/11 07:11:30;;;;;;;36.10;18.03;;;2.80;99.90;;;;;;5012607;28;20180;-76
2022/12/11 07:13:59;;;;;;;30.60;17.20;;;3.10;99.90;;;;;;5011195;28;20260;-77
2022/12/11 07:16:25;;;;;;;36.47;18.43;;;3.30;99.90;;;;;;5011553;28;20180;-76
2022/12/11 07:18:51;;;;;;;35.47;17.77;;;3.50;99.90;;;;;;5012620;28;20566;-76
2022/12/11 07:21:18;;;;;;;37.80;17.37;;;3.60;99.90;;;;;;5011252;28;20316;-76
2022/12/11 07:23:44;;;;;;;36.93;18.10;;;3.40;99.90;;;;;;5011035;28;20560;-75
2022/12/11 07:26:13;;;;;;;32.63;15.90;;;3.40;99.90;;;;;;5011442;28;20166;-76
2022/12/11 07:28:40;;;;;;;37.10;17.73;;;3.20;99.90;;;;;;5012495;28;20166;-76
2022/12/11 07:31:07;;;;;;;31.53;15.90;;;3.30;99.90;;;;;;5012859;28;20536;-76
2022/12/11 07:33:33;;;;;;;30.40;15.73;;;3.20;99.90;;;;;;5011032;28;20288;-76
2022/12/11 07:36:06;;;;;;;31.57;16.47;;;3.00;99.90;;;;;;5012679;28;20200;-76
2022/12/11 07:38:32;;;;;;;32.43;16.20;;;2.80;99.90;;;;;;5010895;28;20184;-78
2022/12/11 07:41:04;;;;;;;28.97;15.57;;;2.90;99.90;;;;;;5012879;28;20533;-76
2022/12/11 07:43:31;;;;;;;33.23;16.57;;;2.90;99.90;;;;;;5011316;28;20195;-76
2022/12/11 07:46:01;;;;;;;30.70;15.53;;;3.10;99.90;;;;;;5010990;28;20537;-77
2022/12/11 07:48:27;;;;;;;34.83;15.87;;;3.10;99.90;;;;;;5012403;28;20538;-77
2022/12/11 07:50:53;;;;;;;30.13;15.97;;;3.10;99.90;;;;;;5011045;28;20165;-78
2022/12/11 07:53:21;;;;;;;32.20;15.03;;;3.10;99.90;;;;;;5011886;28;20227;-78
2022/12/11 07:55:50;;;;;;;32.77;16.07;;;3.20;99.90;;;;;;5013042;28;20693;-79
2022/12/11 07:58:17;;;;;;;36.43;17.37;;;3.50;99.90;;;;;;5012205;28;20208;-78
2022/12/11 08:00:50;;;;;;;37.27;17.47;;;3.30;99.90;;;;;;5012286;28;20675;-78
2022/12/11 08:03:19;;;;;;;34.33;17.20;;;3.30;99.90;;;;;;5013748;28;20208;-74
2022/12/11 08:05:51;;;;;;;37.80;16.97;;;3.40;99.90;;;;;;5013426;28;20174;-74
2022/12/11 08:08:19;;;;;;;33.57;16.07;;;3.20;99.90;;;;;;5016180;28;20540;-75
2022/12/11 08:10:47;;;;;;;34.50;17.10;;;3.00;99.90;;;;;;5015870;28;20585;-74
2022/12/11 08:13:12;;;;;;;31.50;16.67;;;2.70;99.90;;;;;;5016495;28;20157;-74
2022/12/11 08:15:39;;;;;;;31.83;16.73;;;2.80;99.90;;;;;;5016000;28;20235;-74
2022/12/11 08:18:05;;;;;;;28.47;16.00;;;2.70;99.90;;;;;;5016190;28;20215;-74
2022/12/11 08:20:31;;;;;;;29.97;15.10;;;2.80;99.90;;;;;;5014375;28;20552;-74
2022/12/11 08:22:58;;;;;;;33.97;16.03;;;2.90;99.90;;;;;;5015498;28;20189;-74
2022/12/11 08:25:26;;;;;;;32.73;15.90;;;2.80;99.90;;;;;;5010566;28;20529;-74
2022/12/11 08:27:51;;;;;;;33.03;16.57;;;3.00;99.90;;;;;;5014735;28;20173;-74
2022/12/11 08:30:17;;;;;;;31.30;16.67;;;2.80;99.90;;;;;;5015428;28;20168;-73
2022/12/11 08:32:42;;;;;;;31.33;15.90;;;2.70;99.90;;;;;;5015829;28;20307;-74
2022/12/11 08:35:08;;;;;;;29.07;14.53;;;2.80;99.90;;;;;;5015662;28;20176;-75
2022/12/11 08:37:34;;;;;;;29.87;16.07;;;3.00;99.90;;;;;;5015444;28;20239;-73
2022/12/11 08:40:00;;;;;;;29.00;14.40;;;2.90;99.90;;;;;;5015298;28;20224;-76
2022/12/11 08:42:26;;;;;;;30.83;14.97;;;3.00;99.90;;;;;;5015522;28;20170;-73
2022/12/11 08:44:52;;;;;;;33.20;15.00;;;3.10;99.90;;;;;;5015529;28;20177;-75
2022/12/11 08:47:18;;;;;;;33.50;15.60;;;3.30;99.90;;;;;;5015786;28;20200;-75
2022/12/11 08:49:45;;;;;;;27.43;14.37;;;3.50;99.90;;;;;;5015530;28;20205;-74
2022/12/11 08:52:10;;;;;;;28.43;15.07;;;3.40;99.90;;;;;;5015259;28;20662;-73
2022/12/11 08:54:36;;;;;;;32.20;15.50;;;3.40;99.90;;;;;;5015258;28;20260;-73
2022/12/11 08:57:02;;;;;;;30.83;14.57;;;3.50;99.90;;;;;;5015526;28;20231;-73
2022/12/11 08:59:29;;;;;;;26.57;13.27;;;3.60;99.90;;;;;;5015064;28;20173;-73
2022/12/11 09:01:55;;;;;;;25.90;13.80;;;3.70;99.90;;;;;;5014068;28;20248;-74
2022/12/11 09:04:21;;;;;;;27.30;14.93;;;3.70;99.90;;;;;;5013562;28;20292;-73
2022/12/11 09:06:47;;;;;;;27.83;15.13;;;3.60;99.90;;;;;;5014852;28;20176;-74
2022/12/11 09:09:13;;;;;;;28.93;14.60;;;3.50;99.90;;;;;;5015110;28;20631;-75
2022/12/11 09:11:39;;;;;;;30.67;14.47;;;3.40;99.90;;;;;;5014872;28;20604;-74
2022/12/11 09:14:05;;;;;;;34.17;18.57;;;3.60;99.90;;;;;;5014726;28;20678;-74
2022/12/11 09:16:32;;;;;;;31.00;16.00;;;3.50;99.90;;;;;;5014596;28;20630;-74
2022/12/11 09:18:59;;;;;;;31.60;16.20;;;3.30;99.90;;;;;;5013425;28;20209;-76
2022/12/11 09:21:27;;;;;;;27.77;14.00;;;3.20;99.90;;;;;;5014727;28;20178;-74
2022/12/11 09:23:55;;;;;;;29.53;14.13;;;3.20;99.90;;;;;;5014704;28;20197;-74
2022/12/11 09:26:24;;;;;;;28.97;15.23;;;3.40;99.90;;;;;;5013192;28;20173;-74
2022/12/11 09:28:52;;;;;;;27.40;15.37;;;3.20;99.90;;;;;;5014546;28;20157;-74
2022/12/11 09:31:27;;;;;;;26.20;13.57;;;3.20;99.90;;;;;;5014906;28;20157;-74
2022/12/11 09:33:56;;;;;;;28.50;13.67;;;3.30;99.90;;;;;;5013872;28;20177;-74
2022/12/11 09:36:23;;;;;;;25.77;12.83;;;3.40;99.90;;;;;;5003471;28;20173;-74
2022/12/11 09:38:49;;;;;;;26.97;14.27;;;3.60;99.90;;;;;;5012840;28;20239;-73
2022/12/11 09:41:16;;;;;;;30.80;14.37;;;3.80;99.90;;;;;;5014579;28;20264;-76
2022/12/11 09:43:56;;;;;;;32.40;16.93;;;3.60;99.90;;;;;;5012750;28;20243;-75
2022/12/11 09:46:22;;;;;;;31.37;15.80;;;3.60;99.90;;;;;;5014491;28;20153;-74
2022/12/11 09:48:48;;;;;;;30.67;15.07;;;3.70;99.90;;;;;;5014076;28;20176;-75
2022/12/11 09:51:26;;;;;;;34.60;16.77;;;3.90;99.90;;;;;;5014176;28;20173;-74
2022/12/11 09:53:52;;;;;;;28.47;14.80;;;3.90;99.90;;;;;;5014511;28;20264;-75
2022/12/11 09:56:26;;;;;;;26.77;13.63;;;3.70;99.90;;;;;;5014203;28;20154;-74
2022/12/11 09:58:57;;;;;;;24.97;13.50;;;3.40;99.90;;;;;;5014147;28;20169;-74
2022/12/11 10:01:35;;;;;;;27.27;12.83;;;3.30;99.90;;;;;;5013755;28;20200;-74
2022/12/11 10:04:22;;;;;;;29.43;14.03;;;3.30;99.90;;;;;;5013778;28;20232;-75
2022/12/11 10:06:59;;;;;;;24.20;12.43;;;3.50;99.90;;;;;;5013546;28;20204;-74
2022/12/11 10:09:35;;;;;;;24.87;13.47;;;3.80;99.90;;;;;;5013553;28;20185;-75
2022/12/11 10:12:15;;;;;;;26.80;13.40;;;3.90;99.90;;;;;;5013160;28;20176;-75
2022/12/11 10:14:58;;;;;;;30.57;13.93;;;3.80;99.90;;;;;;5013514;28;20642;-74
2022/12/11 10:17:31;;;;;;;27.20;12.63;;;3.80;99.90;;;;;;5013023;28;20169;-74
2022/12/11 10:20:27;;;;;;;27.07;13.97;;;3.80;99.90;;;;;;5013566;28;20181;-75
2022/12/11 10:22:54;;;;;;;26.33;12.93;;;4.00;99.90;;;;;;5013263;28;20208;-75
2022/12/11 10:25:23;;;;;;;31.07;15.87;;;4.20;99.90;;;;;;5013132;28;20622;-74
2022/12/11 10:27:49;;;;;;;30.60;14.67;;;4.20;99.90;;;;;;5011218;28;20223;-74
2022/12/11 10:30:20;;;;;;;29.17;14.40;;;4.40;99.90;;;;;;5013544;28;20496;-75
2022/12/11 10:32:51;;;;;;;29.03;15.50;;;4.30;99.90;;;;;;5013537;28;20185;-74
2022/12/11 10:35:35;;;;;;;32.43;14.73;;;4.30;99.90;;;;;;5013507;28;20189;-75
2022/12/11 10:38:19;;;;;;;28.83;15.43;;;4.60;99.90;;;;;;5013473;28;20248;-74
2022/12/11 10:40:49;;;;;;;32.47;15.87;;;4.60;99.90;;;;;;5028037;28;20537;-74
2022/12/11 10:43:15;;;;;;;30.47;15.63;;;4.50;99.90;;;;;;5013321;28;20232;-76
2022/12/11 10:45:53;;;;;;;35.90;19.53;;;4.30;99.90;;;;;;5012011;28;20180;-73
2022/12/11 10:48:19;;;;;;;31.20;14.23;;;4.10;99.90;;;;;;5012955;28;20203;-73
2022/12/11 10:51:02;;;;;;;32.13;15.13;;;4.20;99.90;;;;;;5012880;28;20626;-74
2022/12/11 10:53:28;;;;;;;25.60;13.77;;;4.10;99.90;;;;;;5013020;28;20169;-75
2022/12/11 10:55:56;;;;;;;29.57;14.67;;;4.30;99.90;;;;;;5012933;28;20692;-75
2022/12/11 10:58:25;;;;;;;34.13;18.50;;;4.00;99.90;;;;;;5011543;28;20532;-74
2022/12/11 11:01:30;;;;;;;32.37;15.67;;;3.90;99.90;;;;;;5012923;28;20180;-75
2022/12/11 11:04:01;;;;;;;28.40;14.60;;;3.80;99.90;;;;;;5010312;28;20567;-76
2022/12/11 11:06:27;;;;;;;28.33;13.00;;;3.90;99.90;;;;;;4994357;28;20247;-73
2022/12/11 11:08:58;;;;;;;30.17;13.97;;;3.60;99.90;;;;;;5011772;28;20231;-75
2022/12/11 11:11:33;;;;;;;31.33;16.80;;;3.90;99.90;;;;;;5012097;28;20181;-75
2022/12/11 11:14:13;;;;;;;28.17;14.60;;;4.30;99.90;;;;;;5012539;28;20533;-74
2022/12/11 11:16:40;;;;;;;31.90;16.93;;;4.40;99.90;;;;;;5012660;28;20173;-75
2022/12/11 11:19:06;;;;;;;30.37;13.80;;;4.80;99.90;;;;;;5012955;28;20172;-76
2022/12/11 11:21:34;;;;;;;24.23;12.60;;;5.20;99.90;;;;;;5012883;28;20653;-76
2022/12/11 11:24:00;;;;;;;24.67;13.27;;;5.80;99.90;;;;;;5011315;28;20223;-75
2022/12/11 11:26:30;;;;;;;29.00;13.40;;;6.00;99.90;;;;;;5011336;28;20626;-75
2022/12/11 11:28:56;;;;;;;30.60;14.73;;;5.90;99.90;;;;;;5011424;28;20252;-76
2022/12/11 11:31:31;;;;;;;29.50;13.53;;;5.90;99.90;;;;;;5012780;28;20162;-74
2022/12/11 11:34:06;;;;;;;25.70;10.47;;;6.10;99.90;;;;;;5012501;28;20214;-76
2022/12/11 11:36:35;;;;;;;24.27;11.33;;;5.50;99.90;;;;;;5011469;28;20177;-75
2022/12/11 11:39:03;;;;;;;25.07;11.83;;;5.00;99.90;;;;;;5012409;28;20219;-74
2022/12/11 11:41:33;;;;;;;21.17;9.47;;;4.90;99.90;;;;;;5014145;28;20181;-76
2022/12/11 11:44:04;;;;;;;20.97;10.37;;;5.10;99.90;;;;;;5016619;28;20193;-75
2022/12/11 11:46:39;;;;;;;19.00;8.90;;;5.20;99.90;;;;;;5016705;28;20240;-75
2022/12/11 11:49:26;;;;;;;19.27;9.30;;;5.00;99.90;;;;;;5016552;28;20684;-75
2022/12/11 11:52:24;;;;;;;24.87;9.73;;;5.30;99.90;;;;;;5015336;28;20651;-76
2022/12/11 11:54:56;;;;;;;24.13;12.07;;;5.60;99.90;;;;;;5016283;28;20255;-74
2022/12/11 11:57:42;;;;;;;21.47;10.30;;;5.70;99.90;;;;;;5016651;28;20212;-75
2022/12/11 12:00:21;;;;;;;22.87;12.57;;;5.80;99.90;;;;;;5015137;28;20171;-75
2022/12/11 12:02:54;;;;;;;24.63;10.90;;;5.60;99.90;;;;;;5016295;28;20275;-73
2022/12/11 12:05:29;;;;;;;26.70;11.07;;;5.40;99.90;;;;;;5015080;28;20165;-73
2022/12/11 12:08:25;;;;;;;21.10;9.93;;;5.40;99.90;;;;;;5016583;28;20629;-73
2022/12/11 12:11:04;;;;;;;21.13;10.83;;;5.40;99.90;;;;;;5014365;28;20177;-73
2022/12/11 12:13:36;;;;;;;23.10;11.10;;;5.50;99.90;;;;;;5016108;28;20628;-74
2022/12/11 12:16:04;;;;;;;23.77;12.13;;;5.30;99.90;;;;;;5016587;28;20176;-73
2022/12/11 12:18:39;;;;;;;26.87;11.80;;;5.40;99.90;;;;;;5015881;28;20252;-74
2022/12/11 12:21:11;;;;;;;22.63;9.37;;;5.40;99.90;;;;;;5014866;28;20184;-73
2022/12/11 12:23:52;;;;;;;19.37;9.53;;;5.50;99.90;;;;;;5015254;28;20846;-73
2022/12/11 12:26:34;;;;;;;20.03;8.47;;;5.20;99.90;;;;;;5016492;28;20169;-73
2022/12/11 12:29:20;;;;;;;16.90;8.13;;;5.10;99.90;;;;;;5016362;28;20192;-72
2022/12/11 12:32:06;;;;;;;16.70;7.80;;;5.00;99.90;;;;;;5015102;28;20181;-73
2022/12/11 12:35:10;;;;;;;16.73;7.90;;;4.60;99.90;;;;;;5015455;28;20566;-73
2022/12/11 12:38:03;;;;;;;18.20;7.87;;;4.40;99.90;;;;;;5015379;28;20181;-73
2022/12/11 12:41:12;;;;;;;18.53;9.70;;;4.30;99.90;;;;;;5015072;28;20207;-73
2022/12/11 12:43:49;;;;;;;26.23;9.13;;;4.30;99.90;;;;;;5016193;28;20185;-73
2022/12/11 12:46:35;;;;;;;22.67;9.80;;;4.50;99.90;;;;;;5016093;28;20192;-74
2022/12/11 12:49:11;;;;;;;21.27;9.37;;;4.70;99.90;;;;;;5014749;28;20256;-73
2022/12/11 12:51:45;;;;;;;25.20;10.90;;;4.80;99.90;;;;;;5015841;28;20233;-73
2022/12/11 12:54:16;;;;;;;21.07;10.53;;;4.50;99.90;;;;;;5015812;28;20173;-73
2022/12/11 12:56:43;;;;;;;21.80;10.30;;;4.40;99.90;;;;;;5013725;28;20173;-73
2022/12/11 12:59:24;;;;;;;24.10;11.73;;;4.30;99.90;;;;;;5013005;28;20177;-73
2022/12/11 13:01:55;;;;;;;25.13;12.03;;;4.10;99.90;;;;;;5014145;28;20689;-73